createdAt,value
2018-06-15T00:01:18.306Z,100948.83
2018-06-15T00:04:23.701Z,100947.06
2018-06-15T00:07:29.431Z,100947.53
2018-06-15T00:10:34.557Z,100954.95
2018-06-15T00:13:39.837Z,100955.89
2018-06-15T00:16:44.956Z,100950.78
2018-06-15T00:19:50.118Z,100953.30
2018-06-15T00:22:56.234Z,100959.61
2018-06-15T00:26:02.153Z,100959.61
2018-06-15T00:29:07.286Z,100950.84
2018-06-15T00:32:14.378Z,100957.07
2018-06-15T00:35:21.330Z,100955.30
2018-06-15T00:38:27.971Z,100961.32
2018-06-15T00:41:33.930Z,100960.13
2018-06-15T00:44:40.015Z,100962.34
2018-06-15T00:47:45.121Z,100963.74
2018-06-15T00:50:50.278Z,100962.20
2018-06-15T00:53:56.814Z,100963.03
2018-06-15T00:57:13.652Z,100958.78
2018-06-15T01:00:19.447Z,100963.24
2018-06-15T01:03:24.726Z,100961.59
2018-06-15T01:06:31.142Z,100967.71
2018-06-15T01:09:36.969Z,100964.77
2018-06-15T01:12:43.171Z,100965.12
2018-06-15T01:15:49.242Z,100964.37
2018-06-15T01:18:54.918Z,100956.34
2018-06-15T01:22:00.060Z,100961.42
2018-06-15T01:25:05.630Z,100964.45
2018-06-15T01:28:11.073Z,100960.92
2018-06-15T01:31:17.027Z,100957.80
2018-06-15T01:34:22.801Z,100969.68
2018-06-15T01:37:27.960Z,100969.68
2018-06-15T01:40:33.086Z,100967.77
2018-06-15T01:43:38.214Z,100967.05
2018-06-15T01:46:43.355Z,100974.18
2018-06-15T01:49:48.504Z,100982.31
2018-06-15T01:52:53.694Z,100981.95
2018-06-15T01:56:00.870Z,100984.41
2018-06-15T01:59:06.686Z,100983.79
2018-06-15T02:02:11.886Z,100979.26
2018-06-15T02:05:18.465Z,100982.53
2018-06-15T02:08:24.096Z,100981.63
2018-06-15T02:11:30.890Z,100970.39
2018-06-15T02:14:36.336Z,100975.22
2018-06-15T02:17:41.439Z,100975.50
2018-06-15T02:20:47.025Z,100976.75
2018-06-15T02:23:53.170Z,100974.76
2018-06-15T02:26:58.248Z,100979.31
2018-06-15T02:30:03.697Z,100981.36
2018-06-15T02:33:09.688Z,100983.44
2018-06-15T02:36:14.781Z,100980.47
2018-06-15T02:39:20.832Z,100985.13
2018-06-15T02:42:26.208Z,100985.50
2018-06-15T02:45:31.374Z,100984.80
2018-06-15T02:48:36.606Z,100987.42
2018-06-15T02:51:42.053Z,100987.80
2018-06-15T02:54:47.359Z,101000.37
2018-06-15T02:57:52.444Z,101001.96
2018-06-15T03:00:57.540Z,101001.20
2018-06-15T03:04:02.634Z,101003.98
2018-06-15T03:07:09.664Z,101003.98
2018-06-15T03:10:15.752Z,101009.63
2018-06-15T03:13:20.852Z,101017.95
2018-06-15T03:16:26.852Z,101009.46
2018-06-15T03:19:33.240Z,101018.88
2018-06-15T03:22:38.340Z,101021.36
2018-06-15T03:25:43.435Z,101023.22
2018-06-15T03:28:49.409Z,101023.87
2018-06-15T03:31:54.465Z,101022.78
2018-06-15T03:34:59.619Z,101019.07
2018-06-15T03:38:05.106Z,101021.09
2018-06-15T03:41:10.912Z,101034.69
2018-06-15T03:44:17.331Z,101027.85
2018-06-15T03:47:22.448Z,101035.80
2018-06-15T03:50:27.529Z,101032.02
2018-06-15T03:53:33.544Z,101043.66
2018-06-15T03:56:38.887Z,101051.12
2018-06-15T03:59:44.156Z,101056.28
2018-06-15T04:02:51.212Z,101057.67
2018-06-15T04:05:57.103Z,101054.73
2018-06-15T04:09:02.366Z,101062.02
2018-06-15T04:12:08.348Z,101064.23
2018-06-15T04:15:14.756Z,101067.11
2018-06-15T04:18:20.732Z,101070.98
2018-06-15T04:21:26.414Z,101069.23
2018-06-15T04:24:31.727Z,101075.14
2018-06-15T04:27:37.723Z,101074.39
2018-06-15T04:30:42.829Z,101077.45
2018-06-15T04:33:48.953Z,101076.33
2018-06-15T04:36:54.061Z,101080.97
2018-06-15T04:39:59.571Z,101078.45
2018-06-15T04:43:05.542Z,101083.56
2018-06-15T04:46:10.349Z,101085.69
2018-06-15T04:49:15.635Z,101088.27
2018-06-15T04:52:21.703Z,101092.42
2018-06-15T04:55:26.772Z,101089.73
2018-06-15T04:58:31.836Z,101093.52
2018-06-15T05:01:38.348Z,101094.25
2018-06-15T05:04:44.454Z,101093.69
2018-06-15T05:07:50.516Z,101096.21
2018-06-15T05:10:56.241Z,101102.95
2018-06-15T05:14:01.346Z,101100.27
2018-06-15T05:17:06.481Z,101112.55
2018-06-15T05:20:12.163Z,101111.45
2018-06-15T05:23:18.162Z,101111.26
2018-06-15T05:26:23.444Z,101108.20
2018-06-15T05:29:29.533Z,101112.72
2018-06-15T05:32:35.693Z,101114.02
2018-06-15T05:35:41.092Z,101119.56
2018-06-15T05:38:46.179Z,101122.42
2018-06-15T05:41:51.599Z,101121.95
2018-06-15T05:44:58.034Z,101122.69
2018-06-15T05:48:04.137Z,101131.21
2018-06-15T05:51:09.952Z,101136.09
2018-06-15T05:54:15.354Z,101149.67
2018-06-15T05:57:21.216Z,101145.25
2018-06-15T06:00:26.273Z,101148.02
2018-06-15T06:03:32.256Z,101145.25
2018-06-15T06:06:38.364Z,101144.16
2018-06-15T06:09:43.449Z,101141.84
2018-06-15T06:12:48.866Z,101145.52
2018-06-15T06:15:53.916Z,101143.56
2018-06-15T06:18:59.016Z,101151.52
2018-06-15T06:22:04.439Z,101150.39
2018-06-15T06:25:10.741Z,101153.18
2018-06-15T06:28:17.223Z,101159.81
2018-06-15T06:31:22.628Z,101151.84
2018-06-15T06:34:28.215Z,101161.00
2018-06-15T06:37:34.248Z,101159.97
2018-06-15T06:40:39.330Z,101170.13
2018-06-15T06:43:44.482Z,101170.32
2018-06-15T06:46:51.636Z,101176.96
2018-06-15T06:49:58.353Z,101179.71
2018-06-15T06:53:04.421Z,101180.37
2018-06-15T06:56:10.444Z,101187.84
2018-06-15T06:59:15.860Z,101178.56
2018-06-15T07:02:22.881Z,101191.71
2018-06-15T07:05:29.114Z,101182.80
2018-06-15T07:08:34.895Z,101195.38
2018-06-15T07:11:41.328Z,101192.11
2018-06-15T07:14:51.546Z,101191.33
2018-06-15T07:17:57.515Z,101189.39
2018-06-15T07:21:02.991Z,101188.36
2018-06-15T07:24:08.885Z,101192.86
2018-06-15T07:27:14.988Z,101187.39
2018-06-15T07:30:20.491Z,101196.55
2018-06-15T07:33:27.483Z,101196.27
2018-06-15T07:36:34.884Z,101197.61
2018-06-15T07:39:39.972Z,101201.11
2018-06-15T07:42:45.037Z,101198.92
2018-06-15T07:45:50.095Z,101200.86
2018-06-15T07:48:55.403Z,101200.19
2018-06-15T07:52:00.480Z,101200.22
2018-06-15T07:55:06.511Z,101196.40
2018-06-15T07:58:12.576Z,101199.50
2018-06-15T08:01:18.459Z,101201.44
2018-06-15T08:04:25.856Z,101196.86
2018-06-15T08:07:31.929Z,101201.73
2018-06-15T08:10:38.080Z,101198.73
2018-06-15T08:13:43.202Z,101207.38
2018-06-15T08:16:48.268Z,101206.50
2018-06-15T08:19:54.392Z,101199.60
2018-06-15T08:23:00.493Z,101205.54
2018-06-15T08:26:06.579Z,101215.98
2018-06-15T08:29:11.646Z,101216.98
2018-06-15T08:32:17.272Z,101214.22
2018-06-15T08:35:22.391Z,101215.82
2018-06-15T08:38:29.373Z,101217.19
2018-06-15T08:41:35.376Z,101225.05
2018-06-15T08:44:41.496Z,101222.99
2018-06-15T08:47:46.602Z,101227.14
2018-06-15T08:50:51.688Z,101220.94
2018-06-15T08:53:56.773Z,101230.31
2018-06-15T08:57:01.922Z,101231.39
2018-06-15T09:00:08.367Z,101224.45
2018-06-15T09:03:14.152Z,101226.70
2018-06-15T09:06:20.520Z,101225.08
2018-06-15T09:09:26.427Z,101224.52
2018-06-15T09:12:32.325Z,101227.84
2018-06-15T09:15:38.862Z,101227.64
2018-06-15T09:18:45.159Z,101233.34
2018-06-15T09:21:51.216Z,101224.38
2018-06-15T09:24:56.287Z,101228.40
2018-06-15T09:28:01.968Z,101234.34
2018-06-15T09:31:07.106Z,101230.45
2018-06-15T09:34:12.411Z,101236.13
2018-06-15T09:37:18.814Z,101226.92
2018-06-15T09:40:24.710Z,101228.09
2018-06-15T09:43:30.107Z,101235.80
2018-06-15T09:46:35.524Z,101230.36
2018-06-15T09:49:41.486Z,101225.17
2018-06-15T09:52:47.561Z,101228.84
2018-06-15T09:55:55.467Z,101234.70
2018-06-15T09:59:01.543Z,101232.68
2018-06-15T10:02:08.565Z,101233.37
2018-06-15T10:05:14.045Z,101231.38
2018-06-15T10:08:19.167Z,101231.38
2018-06-15T10:11:24.248Z,101237.30
2018-06-15T10:14:29.395Z,101224.73
2018-06-15T10:17:35.563Z,101241.78
2018-06-15T10:20:41.545Z,101226.38
2018-06-15T10:23:47.251Z,101232.91
2018-06-15T10:26:53.160Z,101230.30
2018-06-15T10:29:59.544Z,101234.17
2018-06-15T10:33:05.738Z,101236.30
2018-06-15T10:36:11.579Z,101232.27
2018-06-15T10:39:16.935Z,101224.52
2018-06-15T10:42:22.911Z,101224.38
2018-06-15T10:45:29.247Z,101227.02
2018-06-15T10:48:35.139Z,101227.21
2018-06-15T10:51:41.291Z,101224.77
2018-06-15T10:54:46.817Z,101224.81
2018-06-15T10:57:52.869Z,101222.81
2018-06-15T11:00:58.681Z,101217.27
2018-06-15T11:04:03.759Z,101214.83
2018-06-15T11:07:09.368Z,101220.23
2018-06-15T11:10:14.888Z,101222.66
2018-06-15T11:13:20.676Z,101222.48
2018-06-15T11:16:26.726Z,101219.94
2018-06-15T11:19:32.101Z,101222.45
2018-06-15T11:22:38.000Z,101221.00
2018-06-15T11:25:43.083Z,101217.28
2018-06-15T11:28:49.116Z,101208.48
2018-06-15T11:31:54.210Z,101201.94
2018-06-15T11:34:59.901Z,101209.92
2018-06-15T11:38:06.377Z,101201.80
2018-06-15T11:41:12.450Z,101199.70
2018-06-15T11:44:17.372Z,101202.20
2018-06-15T11:47:22.521Z,101195.70
2018-06-15T11:50:27.645Z,101201.43
2018-06-15T11:53:32.977Z,101194.95
2018-06-15T11:56:38.595Z,101199.08
2018-06-15T11:59:43.864Z,101193.65
2018-06-15T12:02:50.929Z,101200.25
2018-06-15T12:05:56.909Z,101196.71
2018-06-15T12:09:01.976Z,101192.87
2018-06-15T12:12:08.637Z,101194.52
2018-06-15T12:15:14.711Z,101201.12
2018-06-15T12:18:20.867Z,101199.95
2018-06-15T12:21:26.052Z,101201.60
2018-06-15T12:24:31.352Z,101196.22
2018-06-15T12:27:37.556Z,101200.86
2018-06-15T12:30:44.088Z,101203.96
2018-06-15T12:33:50.064Z,101201.12
2018-06-15T12:36:56.127Z,101201.35
2018-06-15T12:40:01.963Z,101206.36
2018-06-15T12:43:07.256Z,101197.62
2018-06-15T12:46:12.356Z,101199.37
2018-06-15T12:49:17.939Z,101197.83
2018-06-15T12:52:24.277Z,101197.48
2018-06-15T12:55:29.801Z,101198.73
2018-06-15T12:58:35.396Z,101195.78
2018-06-15T13:01:41.141Z,101194.67
2018-06-15T13:04:46.204Z,101193.84
2018-06-15T13:07:51.282Z,101194.67
2018-06-15T13:10:56.145Z,101194.53
2018-06-15T13:14:03.129Z,101198.11
2018-06-15T13:17:08.848Z,101196.80
2018-06-15T13:20:14.272Z,101194.73
2018-06-15T13:23:19.355Z,101194.13
2018-06-15T13:26:24.441Z,101192.68
2018-06-15T13:29:30.100Z,101192.20
2018-06-15T13:32:36.087Z,101191.71
2018-06-15T13:35:42.192Z,101194.81
2018-06-15T13:38:47.730Z,101193.02
2018-06-15T13:41:52.809Z,101193.16
2018-06-15T13:44:58.328Z,101192.25
2018-06-15T13:48:03.408Z,101190.61
2018-06-15T13:51:08.835Z,101191.38
2018-06-15T13:54:14.952Z,101188.33
2018-06-15T13:57:20.047Z,101188.12
2018-06-15T14:00:25.687Z,101184.83
2018-06-15T14:03:33.164Z,101181.19
2018-06-15T14:06:39.876Z,101183.95
2018-06-15T14:09:45.601Z,101183.13
2018-06-15T14:12:51.652Z,101174.90
2018-06-15T14:15:57.688Z,101180.13
2018-06-15T14:19:03.113Z,101180.76
2018-06-15T14:22:09.040Z,101181.58
2018-06-15T14:25:15.117Z,101177.03
2018-06-15T14:28:21.111Z,101181.93
2018-06-15T14:31:26.188Z,101184.83
2018-06-15T14:34:31.288Z,101187.64
2018-06-15T14:37:36.592Z,101190.30
2018-06-15T14:40:43.296Z,101185.02
2018-06-15T14:43:48.835Z,101188.00
2018-06-15T14:46:56.261Z,101193.41
2018-06-15T14:50:01.978Z,101191.77
2018-06-15T14:53:07.079Z,101197.80
2018-06-15T14:56:12.140Z,101203.01
2018-06-15T14:59:17.382Z,101200.50
2018-06-15T15:02:22.460Z,101199.66
2018-06-15T15:05:27.999Z,101202.13
2018-06-15T15:08:33.160Z,101199.51
2018-06-15T15:11:40.339Z,101203.78
2018-06-15T15:14:46.268Z,101197.49
2018-06-15T15:17:52.240Z,101199.22
2018-06-15T15:20:57.159Z,101196.75
2018-06-15T15:24:02.518Z,101201.59
2018-06-15T15:27:07.652Z,101202.03
2018-06-15T15:30:13.269Z,101201.51
2018-06-15T15:33:19.289Z,101199.45
2018-06-15T15:36:24.147Z,101197.42
2018-06-15T15:39:30.485Z,101192.94
2018-06-15T15:42:35.760Z,101189.59
2018-06-15T15:45:42.240Z,101185.55
2018-06-15T15:48:48.169Z,101190.59
2018-06-15T15:51:54.273Z,101189.21
2018-06-15T15:55:00.320Z,101188.83
2018-06-15T15:58:07.859Z,101186.98
2018-06-15T16:01:13.868Z,101187.88
2018-06-15T16:04:18.956Z,101191.62
2018-06-15T16:07:24.065Z,101185.95
2018-06-15T16:10:29.744Z,101188.98
2018-06-15T16:13:35.575Z,101183.06
2018-06-15T16:16:41.676Z,101190.24
2018-06-15T16:19:47.697Z,101190.39
2018-06-15T16:22:53.384Z,101181.82
2018-06-15T16:25:59.397Z,101186.45
2018-06-15T16:29:05.461Z,101186.45
2018-06-15T16:32:10.793Z,101187.77
2018-06-15T16:35:16.388Z,101183.47
2018-06-15T16:38:21.705Z,101181.97
2018-06-15T16:41:26.791Z,101180.80
2018-06-15T16:44:31.592Z,101174.06
2018-06-15T16:47:38.259Z,101173.30
2018-06-15T16:50:43.936Z,101171.79
2018-06-15T16:53:49.043Z,101163.55
2018-06-15T16:56:54.159Z,101167.95
2018-06-15T16:59:59.404Z,101170.83
2018-06-15T17:03:04.847Z,101168.84
2018-06-15T17:06:10.676Z,101163.06
2018-06-15T17:09:15.783Z,101164.03
2018-06-15T17:12:21.453Z,101166.08
2018-06-15T17:15:26.949Z,101164.86
2018-06-15T17:18:32.101Z,101165.14
2018-06-15T17:21:37.348Z,101165.54
2018-06-15T17:24:42.762Z,101164.80
2018-06-15T17:27:47.972Z,101167.67
2018-06-15T17:30:54.228Z,101171.05
2018-06-15T17:33:59.626Z,101173.27
2018-06-15T17:37:05.225Z,101170.33
2018-06-15T17:40:11.040Z,101174.67
2018-06-15T17:43:16.115Z,101173.89
2018-06-15T17:46:21.195Z,101184.19
2018-06-15T17:49:26.277Z,101188.52
2018-06-15T17:52:31.917Z,101183.95
2018-06-15T17:55:37.932Z,101180.59
2018-06-15T17:58:44.128Z,101188.61
2018-06-15T18:01:49.212Z,101185.58
2018-06-15T18:04:54.313Z,101182.78
2018-06-15T18:07:59.827Z,101186.26
2018-06-15T18:11:05.333Z,101186.66
2018-06-15T18:14:10.812Z,101190.51
2018-06-15T18:17:15.935Z,101185.34
2018-06-15T18:20:21.571Z,101189.77
2018-06-15T18:23:26.861Z,101189.44
2018-06-15T18:26:31.950Z,101186.06
2018-06-15T18:29:38.507Z,101185.87
2018-06-15T18:32:44.576Z,101186.05
2018-06-15T18:35:49.649Z,101187.38
2018-06-15T18:38:54.781Z,101183.95
2018-06-15T18:42:00.412Z,101181.52
2018-06-15T18:45:06.495Z,101180.02
2018-06-15T18:48:11.684Z,101185.76
2018-06-15T18:51:17.313Z,101183.64
2018-06-15T18:54:23.174Z,101183.39
2018-06-15T18:57:28.685Z,101181.30
2018-06-15T19:00:35.564Z,101187.13
2018-06-15T19:03:42.392Z,101191.05
2018-06-15T19:06:47.458Z,101196.55
2018-06-15T19:09:53.405Z,101194.20
2018-06-15T19:12:59.199Z,101201.66
2018-06-15T19:16:04.957Z,101200.87
2018-06-15T19:19:10.621Z,101197.33
2018-06-15T19:22:16.651Z,101200.05
2018-06-15T19:25:22.868Z,101196.29
2018-06-15T19:28:28.090Z,101193.80
2018-06-15T19:31:33.119Z,101200.51
2018-06-15T19:34:39.755Z,101200.88
2018-06-15T19:37:46.791Z,101204.30
2018-06-15T19:40:52.793Z,101194.82
2018-06-15T19:43:57.907Z,101201.08
2018-06-15T19:47:03.630Z,101199.55
2018-06-15T19:50:10.261Z,101208.41
2018-06-15T19:53:15.388Z,101203.30
2018-06-15T19:56:21.086Z,101207.32
2018-06-15T19:59:26.217Z,101208.48
2018-06-15T20:02:32.226Z,101209.75
2018-06-15T20:05:38.655Z,101215.15
2018-06-15T20:08:44.272Z,101217.36
2018-06-15T20:11:49.677Z,101208.09
2018-06-15T20:14:54.747Z,101208.28
2018-06-15T20:17:59.821Z,101211.34
2018-06-15T20:21:04.879Z,101210.47
2018-06-15T20:24:10.904Z,101213.17
2018-06-15T20:27:18.323Z,101211.95
2018-06-15T20:30:25.016Z,101209.53
2018-06-15T20:33:31.229Z,101206.16
2018-06-15T20:36:36.539Z,101208.27
2018-06-15T20:39:42.655Z,101213.50
2018-06-15T20:42:48.737Z,101203.64
2018-06-15T20:45:55.453Z,101204.05
2018-06-15T20:49:01.037Z,101203.38
2018-06-15T20:52:06.977Z,101201.20
2018-06-15T20:55:13.303Z,101197.38
2018-06-15T20:58:19.055Z,101195.77
2018-06-15T21:01:24.166Z,101194.05
2018-06-15T21:04:30.590Z,101186.41
2018-06-15T21:07:36.641Z,101190.63
2018-06-15T21:10:41.752Z,101192.33
2018-06-15T21:13:47.446Z,101192.50
2018-06-15T21:16:54.003Z,101192.07
2018-06-15T21:20:00.202Z,101186.84
2018-06-15T21:23:05.832Z,101186.05
2018-06-15T21:26:11.988Z,101185.97
2018-06-15T21:29:17.841Z,101182.47
2018-06-15T21:32:24.840Z,101182.96
2018-06-15T21:35:31.251Z,101178.45
2018-06-15T21:38:36.715Z,101172.35
2018-06-15T21:41:42.835Z,101174.17
2018-06-15T21:44:48.215Z,101180.20
2018-06-15T21:47:53.324Z,101183.94
2018-06-15T21:50:59.088Z,101175.61
2018-06-15T21:54:04.212Z,101172.67
2018-06-15T21:57:09.332Z,101174.53
2018-06-15T22:00:15.428Z,101169.76
2018-06-15T22:03:20.665Z,101181.33
2018-06-15T22:06:27.153Z,101179.60
2018-06-15T22:09:32.828Z,101174.59
2018-06-15T22:12:38.828Z,101171.58
2018-06-15T22:15:44.220Z,101162.97
2018-06-15T22:18:50.064Z,101157.23
2018-06-15T22:21:55.165Z,101157.53
2018-06-15T22:25:01.689Z,101156.81
2018-06-15T22:28:07.392Z,101151.56
2018-06-15T22:31:13.993Z,101155.98
2018-06-15T22:34:20.921Z,101154.84
2018-06-15T22:37:27.238Z,101156.23
2018-06-15T22:40:33.188Z,101159.86
2018-06-15T22:43:38.276Z,101163.91
2018-06-15T22:46:43.672Z,101168.18
2018-06-15T22:49:49.799Z,101163.20
2018-06-15T22:52:55.788Z,101160.67
2018-06-15T22:56:01.644Z,101162.44
2018-06-15T22:59:07.714Z,101175.94
2018-06-15T23:02:14.637Z,101176.59
2018-06-15T23:05:20.666Z,101173.44
2018-06-15T23:08:26.356Z,101171.88
2018-06-15T23:11:31.139Z,101172.80
2018-06-15T23:14:36.887Z,101166.42
2018-06-15T23:17:42.750Z,101168.18
2018-06-15T23:20:48.742Z,101167.55
2018-06-15T23:23:54.750Z,101173.70
2018-06-15T23:26:59.850Z,101175.77
2018-06-15T23:30:05.555Z,101176.23
2018-06-15T23:33:12.328Z,101171.58
2018-06-15T23:36:18.072Z,101170.02
2018-06-15T23:39:23.181Z,101166.14
2018-06-15T23:42:29.316Z,101159.77
2018-06-15T23:45:34.735Z,101164.94
2018-06-15T23:48:39.807Z,101167.62
2018-06-15T23:51:45.813Z,101172.43
2018-06-15T23:54:50.922Z,101166.59
2018-06-15T23:57:56.004Z,101161.50
